sensor_id;sensor_type;location;lat;lon;timestamp;P1;durP1;ratioP1;P2;durP2;ratioP2
22929;SDS011;11630;42.660;23.292;2023-05-10T00:00:42;6.00;;;5.20;;
22929;SDS011;11630;42.660;23.292;2023-05-10T00:03:12;7.23;;;6.13;;
22929;SDS011;11630;42.660;23.292;2023-05-10T00:05:43;6.23;;;5.27;;
22929;SDS011;11630;42.660;23.292;2023-05-10T00:08:14;6.70;;;6.10;;
22929;SDS011;11630;42.660;23.292;2023-05-10T00:10:45;7.07;;;6.50;;
22929;SDS011;11630;42.660;23.292;2023-05-10T00:13:14;6.73;;;6.07;;
22929;SDS011;11630;42.660;23.292;2023-05-10T00:15:44;7.60;;;6.47;;
22929;SDS011;11630;42.660;23.292;2023-05-10T00:18:15;7.03;;;6.33;;
22929;SDS011;11630;42.660;23.292;2023-05-10T00:20:48;7.80;;;7.00;;
22929;SDS011;11630;42.660;23.292;2023-05-10T00:23:18;7.07;;;6.43;;
22929;SDS011;11630;42.660;23.292;2023-05-10T00:25:49;7.33;;;6.63;;
22929;SDS011;11630;42.660;23.292;2023-05-10T00:28:20;7.37;;;6.67;;
22929;SDS011;11630;42.660;23.292;2023-05-10T00:30:51;6.90;;;6.20;;
22929;SDS011;11630;42.660;23.292;2023-05-10T00:33:22;7.80;;;6.23;;
22929;SDS011;11630;42.660;23.292;2023-05-10T00:35:53;7.27;;;6.57;;
22929;SDS011;11630;42.660;23.292;2023-05-10T00:38:24;7.70;;;7.00;;
22929;SDS011;11630;42.660;23.292;2023-05-10T00:40:55;6.80;;;6.20;;
22929;SDS011;11630;42.660;23.292;2023-05-10T00:43:26;7.40;;;6.80;;
22929;SDS011;11630;42.660;23.292;2023-05-10T00:45:57;7.43;;;6.73;;
22929;SDS011;11630;42.660;23.292;2023-05-10T00:48:28;8.23;;;6.93;;
22929;SDS011;11630;42.660;23.292;2023-05-10T00:51:01;7.73;;;7.03;;
22929;SDS011;11630;42.660;23.292;2023-05-10T00:53:32;7.67;;;6.97;;
22929;SDS011;11630;42.660;23.292;2023-05-10T00:56:03;7.67;;;6.90;;
22929;SDS011;11630;42.660;23.292;2023-05-10T00:58:34;7.23;;;6.63;;
22929;SDS011;11630;42.660;23.292;2023-05-10T01:01:05;8.93;;;8.07;;
22929;SDS011;11630;42.660;23.292;2023-05-10T01:03:37;7.40;;;6.80;;
22929;SDS011;11630;42.660;23.292;2023-05-10T01:06:08;8.13;;;7.33;;
22929;SDS011;11630;42.660;23.292;2023-05-10T01:08:39;7.87;;;7.03;;
22929;SDS011;11630;42.660;23.292;2023-05-10T01:11:10;8.17;;;7.37;;
22929;SDS011;11630;42.660;23.292;2023-05-10T01:13:40;8.03;;;7.23;;
22929;SDS011;11630;42.660;23.292;2023-05-10T01:16:11;8.33;;;7.57;;
22929;SDS011;11630;42.660;23.292;2023-05-10T01:18:42;8.07;;;6.93;;
22929;SDS011;11630;42.660;23.292;2023-05-10T01:21:57;8.33;;;7.53;;
22929;SDS011;11630;42.660;23.292;2023-05-10T01:23:59;10.33;;;8.43;;
22929;SDS011;11630;42.660;23.292;2023-05-10T01:32:27;8.67;;;7.87;;
22929;SDS011;11630;42.660;23.292;2023-05-10T01:35:03;9.03;;;7.93;;
22929;SDS011;11630;42.660;23.292;2023-05-10T01:41:08;8.33;;;7.53;;
22929;SDS011;11630;42.660;23.292;2023-05-10T01:44:14;6.27;;;5.77;;
22929;SDS011;11630;42.660;23.292;2023-05-10T01:49:10;7.03;;;6.43;;
22929;SDS011;11630;42.660;23.292;2023-05-10T01:51:47;6.47;;;5.87;;
22929;SDS011;11630;42.660;23.292;2023-05-10T01:54:19;7.20;;;6.50;;
22929;SDS011;11630;42.660;23.292;2023-05-10T01:56:56;5.77;;;5.07;;
22929;SDS011;11630;42.660;23.292;2023-05-10T01:59:30;6.00;;;5.50;;
22929;SDS011;11630;42.660;23.292;2023-05-10T02:02:02;6.40;;;5.80;;
22929;SDS011;11630;42.660;23.292;2023-05-10T02:04:35;6.07;;;5.57;;
22929;SDS011;11630;42.660;23.292;2023-05-10T02:07:07;5.77;;;5.37;;
22929;SDS011;11630;42.660;23.292;2023-05-10T02:09:39;5.77;;;5.27;;
22929;SDS011;11630;42.660;23.292;2023-05-10T02:12:11;6.00;;;5.13;;
22929;SDS011;11630;42.660;23.292;2023-05-10T02:14:45;5.60;;;5.10;;
22929;SDS011;11630;42.660;23.292;2023-05-10T02:17:17;6.50;;;5.70;;
22929;SDS011;11630;42.660;23.292;2023-05-10T02:19:50;6.00;;;5.50;;
22929;SDS011;11630;42.660;23.292;2023-05-10T02:22:24;5.97;;;5.37;;
22929;SDS011;11630;42.660;23.292;2023-05-10T02:24:57;5.30;;;4.80;;
22929;SDS011;11630;42.660;23.292;2023-05-10T02:27:30;5.83;;;5.33;;
22929;SDS011;11630;42.660;23.292;2023-05-10T02:30:01;6.23;;;5.10;;
22929;SDS011;11630;42.660;23.292;2023-05-10T02:32:33;7.37;;;5.03;;
22929;SDS011;11630;42.660;23.292;2023-05-10T02:35:05;5.07;;;4.67;;
22929;SDS011;11630;42.660;23.292;2023-05-10T02:37:36;7.67;;;5.07;;
22929;SDS011;11630;42.660;23.292;2023-05-10T02:40:07;5.90;;;5.27;;
22929;SDS011;11630;42.660;23.292;2023-05-10T02:42:39;6.87;;;4.87;;
22929;SDS011;11630;42.660;23.292;2023-05-10T02:45:15;7.43;;;5.50;;
22929;SDS011;11630;42.660;23.292;2023-05-10T02:47:46;5.67;;;5.10;;
22929;SDS011;11630;42.660;23.292;2023-05-10T02:50:17;6.53;;;5.10;;
22929;SDS011;11630;42.660;23.292;2023-05-10T02:52:51;8.10;;;6.00;;
22929;SDS011;11630;42.660;23.292;2023-05-10T02:55:30;7.33;;;6.17;;
22929;SDS011;11630;42.660;23.292;2023-05-10T02:58:03;7.07;;;5.93;;
22929;SDS011;11630;42.660;23.292;2023-05-10T03:00:33;7.20;;;6.50;;
22929;SDS011;11630;42.660;23.292;2023-05-10T03:03:03;8.33;;;6.57;;
22929;SDS011;11630;42.660;23.292;2023-05-10T03:05:34;7.00;;;5.93;;
22929;SDS011;11630;42.660;23.292;2023-05-10T03:08:05;8.67;;;6.93;;
22929;SDS011;11630;42.660;23.292;2023-05-10T03:10:38;6.43;;;5.83;;
22929;SDS011;11630;42.660;23.292;2023-05-10T03:16:08;6.33;;;5.43;;
22929;SDS011;11630;42.660;23.292;2023-05-10T03:21:13;7.50;;;5.97;;
22929;SDS011;11630;42.660;23.292;2023-05-10T03:23:50;7.43;;;6.73;;
22929;SDS011;11630;42.660;23.292;2023-05-10T03:26:26;6.97;;;6.33;;
22929;SDS011;11630;42.660;23.292;2023-05-10T03:28:57;8.03;;;6.40;;
22929;SDS011;11630;42.660;23.292;2023-05-10T03:31:29;7.93;;;6.10;;
22929;SDS011;11630;42.660;23.292;2023-05-10T03:34:02;7.47;;;6.27;;
22929;SDS011;11630;42.660;23.292;2023-05-10T03:36:33;8.70;;;6.70;;
22929;SDS011;11630;42.660;23.292;2023-05-10T03:39:04;9.93;;;6.80;;
22929;SDS011;11630;42.660;23.292;2023-05-10T03:41:34;6.60;;;6.00;;
22929;SDS011;11630;42.660;23.292;2023-05-10T03:44:05;6.77;;;5.97;;
22929;SDS011;11630;42.660;23.292;2023-05-10T03:46:35;6.37;;;5.77;;
22929;SDS011;11630;42.660;23.292;2023-05-10T03:49:06;6.90;;;6.13;;
22929;SDS011;11630;42.660;23.292;2023-05-10T03:51:37;6.63;;;5.93;;
22929;SDS011;11630;42.660;23.292;2023-05-10T03:54:08;6.27;;;5.73;;
22929;SDS011;11630;42.660;23.292;2023-05-10T03:56:39;8.73;;;6.03;;
22929;SDS011;11630;42.660;23.292;2023-05-10T03:59:09;8.13;;;5.93;;
22929;SDS011;11630;42.660;23.292;2023-05-10T04:01:40;6.77;;;6.07;;
22929;SDS011;11630;42.660;23.292;2023-05-10T04:04:11;9.10;;;5.87;;
22929;SDS011;11630;42.660;23.292;2023-05-10T04:06:44;6.47;;;5.57;;
22929;SDS011;11630;42.660;23.292;2023-05-10T04:09:14;6.77;;;6.07;;
22929;SDS011;11630;42.660;23.292;2023-05-10T04:11:43;7.47;;;6.77;;
22929;SDS011;11630;42.660;23.292;2023-05-10T04:14:15;6.37;;;5.57;;
22929;SDS011;11630;42.660;23.292;2023-05-10T04:16:45;9.03;;;6.90;;
22929;SDS011;11630;42.660;23.292;2023-05-10T04:19:16;7.37;;;5.40;;
22929;SDS011;11630;42.660;23.292;2023-05-10T04:21:46;6.53;;;5.83;;
22929;SDS011;11630;42.660;23.292;2023-05-10T04:24:18;8.43;;;6.37;;
22929;SDS011;11630;42.660;23.292;2023-05-10T04:26:48;6.47;;;5.77;;
22929;SDS011;11630;42.660;23.292;2023-05-10T04:29:19;8.00;;;6.60;;
22929;SDS011;11630;42.660;23.292;2023-05-10T04:31:51;7.17;;;6.07;;
22929;SDS011;11630;42.660;23.292;2023-05-10T04:34:22;6.80;;;6.10;;
22929;SDS011;11630;42.660;23.292;2023-05-10T04:36:53;6.67;;;6.03;;
22929;SDS011;11630;42.660;23.292;2023-05-10T04:39:24;7.13;;;6.37;;
22929;SDS011;11630;42.660;23.292;2023-05-10T04:41:55;6.47;;;5.70;;
22929;SDS011;11630;42.660;23.292;2023-05-10T04:44:25;8.97;;;6.13;;
22929;SDS011;11630;42.660;23.292;2023-05-10T04:46:56;7.27;;;5.70;;
22929;SDS011;11630;42.660;23.292;2023-05-10T04:49:30;7.90;;;6.13;;
22929;SDS011;11630;42.660;23.292;2023-05-10T04:52:01;6.60;;;5.63;;
22929;SDS011;11630;42.660;23.292;2023-05-10T04:54:32;7.63;;;6.17;;
22929;SDS011;11630;42.660;23.292;2023-05-10T04:57:02;8.27;;;6.30;;
22929;SDS011;11630;42.660;23.292;2023-05-10T04:59:35;7.10;;;6.40;;
22929;SDS011;11630;42.660;23.292;2023-05-10T05:02:04;9.10;;;6.50;;
22929;SDS011;11630;42.660;23.292;2023-05-10T05:04:35;9.30;;;6.20;;
22929;SDS011;11630;42.660;23.292;2023-05-10T05:07:06;7.23;;;6.33;;
22929;SDS011;11630;42.660;23.292;2023-05-10T05:09:37;7.30;;;6.57;;
22929;SDS011;11630;42.660;23.292;2023-05-10T05:12:08;9.73;;;7.27;;
22929;SDS011;11630;42.660;23.292;2023-05-10T05:14:42;8.53;;;6.23;;
22929;SDS011;11630;42.660;23.292;2023-05-10T05:17:12;8.40;;;7.13;;
22929;SDS011;11630;42.660;23.292;2023-05-10T05:19:43;8.90;;;6.83;;
22929;SDS011;11630;42.660;23.292;2023-05-10T05:22:14;8.03;;;6.27;;
22929;SDS011;11630;42.660;23.292;2023-05-10T05:24:47;10.57;;;6.93;;
22929;SDS011;11630;42.660;23.292;2023-05-10T05:27:18;7.43;;;6.40;;
22929;SDS011;11630;42.660;23.292;2023-05-10T05:29:52;9.33;;;8.40;;
22929;SDS011;11630;42.660;23.292;2023-05-10T05:32:24;9.03;;;8.13;;
22929;SDS011;11630;42.660;23.292;2023-05-10T05:34:56;8.27;;;7.40;;
22929;SDS011;11630;42.660;23.292;2023-05-10T05:37:27;9.03;;;7.40;;
22929;SDS011;11630;42.660;23.292;2023-05-10T05:39:58;11.90;;;7.23;;
22929;SDS011;11630;42.660;23.292;2023-05-10T05:42:30;10.67;;;8.33;;
22929;SDS011;11630;42.660;23.292;2023-05-10T05:45:01;9.90;;;8.10;;
22929;SDS011;11630;42.660;23.292;2023-05-10T05:47:32;7.37;;;5.60;;
22929;SDS011;11630;42.660;23.292;2023-05-10T05:50:03;8.53;;;7.57;;
22929;SDS011;11630;42.660;23.292;2023-05-10T05:52:35;9.43;;;8.40;;
22929;SDS011;11630;42.660;23.292;2023-05-10T05:55:06;12.70;;;9.53;;
22929;SDS011;11630;42.660;23.292;2023-05-10T05:57:37;14.73;;;9.30;;
22929;SDS011;11630;42.660;23.292;2023-05-10T06:00:08;11.80;;;8.80;;
22929;SDS011;11630;42.660;23.292;2023-05-10T06:02:39;11.57;;;9.00;;
22929;SDS011;11630;42.660;23.292;2023-05-10T06:05:10;9.70;;;8.70;;
22929;SDS011;11630;42.660;23.292;2023-05-10T06:07:41;10.47;;;8.90;;
22929;SDS011;11630;42.660;23.292;2023-05-10T06:10:14;12.67;;;9.63;;
22929;SDS011;11630;42.660;23.292;2023-05-10T06:12:45;14.37;;;10.43;;
22929;SDS011;11630;42.660;23.292;2023-05-10T06:15:15;15.60;;;10.63;;
22929;SDS011;11630;42.660;23.292;2023-05-10T06:17:46;12.10;;;10.20;;
22929;SDS011;11630;42.660;23.292;2023-05-10T06:20:16;13.80;;;11.20;;
22929;SDS011;11630;42.660;23.292;2023-05-10T06:22:47;14.13;;;10.60;;
22929;SDS011;11630;42.660;23.292;2023-05-10T06:25:18;14.20;;;11.07;;
22929;SDS011;11630;42.660;23.292;2023-05-10T06:27:48;11.30;;;10.07;;
22929;SDS011;11630;42.660;23.292;2023-05-10T06:30:18;16.13;;;10.27;;
22929;SDS011;11630;42.660;23.292;2023-05-10T06:32:48;13.33;;;10.20;;
22929;SDS011;11630;42.660;23.292;2023-05-10T06:35:19;13.80;;;10.13;;
22929;SDS011;11630;42.660;23.292;2023-05-10T06:37:50;13.87;;;10.37;;
22929;SDS011;11630;42.660;23.292;2023-05-10T06:40:21;13.97;;;10.00;;
22929;SDS011;11630;42.660;23.292;2023-05-10T06:42:52;12.37;;;9.70;;
22929;SDS011;11630;42.660;23.292;2023-05-10T06:45:23;13.37;;;10.07;;
22929;SDS011;11630;42.660;23.292;2023-05-10T06:47:54;14.30;;;9.90;;
22929;SDS011;11630;42.660;23.292;2023-05-10T06:50:25;12.93;;;10.00;;
22929;SDS011;11630;42.660;23.292;2023-05-10T06:52:56;11.37;;;10.17;;
22929;SDS011;11630;42.660;23.292;2023-05-10T06:55:27;13.20;;;10.13;;
22929;SDS011;11630;42.660;23.292;2023-05-10T06:57:58;11.23;;;9.17;;
22929;SDS011;11630;42.660;23.292;2023-05-10T07:00:29;12.83;;;9.40;;
22929;SDS011;11630;42.660;23.292;2023-05-10T07:03:00;12.93;;;10.03;;
22929;SDS011;11630;42.660;23.292;2023-05-10T07:05:31;15.73;;;8.63;;
22929;SDS011;11630;42.660;23.292;2023-05-10T07:08:02;14.60;;;9.07;;
22929;SDS011;11630;42.660;23.292;2023-05-10T07:10:33;13.60;;;9.50;;
22929;SDS011;11630;42.660;23.292;2023-05-10T07:13:04;12.40;;;11.03;;
22929;SDS011;11630;42.660;23.292;2023-05-10T07:15:34;15.77;;;10.50;;
22929;SDS011;11630;42.660;23.292;2023-05-10T07:18:05;11.57;;;8.93;;
22929;SDS011;11630;42.660;23.292;2023-05-10T07:20:36;20.40;;;10.20;;
22929;SDS011;11630;42.660;23.292;2023-05-10T07:23:07;9.87;;;8.87;;
22929;SDS011;11630;42.660;23.292;2023-05-10T07:25:38;13.33;;;10.53;;
22929;SDS011;11630;42.660;23.292;2023-05-10T07:28:08;12.73;;;9.77;;
22929;SDS011;11630;42.660;23.292;2023-05-10T07:30:40;11.40;;;10.20;;
22929;SDS011;11630;42.660;23.292;2023-05-10T07:33:11;10.97;;;9.10;;
22929;SDS011;11630;42.660;23.292;2023-05-10T07:35:42;16.40;;;9.67;;
22929;SDS011;11630;42.660;23.292;2023-05-10T07:38:11;13.30;;;10.43;;
22929;SDS011;11630;42.660;23.292;2023-05-10T07:40:41;12.37;;;9.47;;
22929;SDS011;11630;42.660;23.292;2023-05-10T07:43:12;11.03;;;9.17;;
22929;SDS011;11630;42.660;23.292;2023-05-10T07:45:43;12.13;;;10.20;;
22929;SDS011;11630;42.660;23.292;2023-05-10T07:48:15;14.33;;;10.43;;
22929;SDS011;11630;42.660;23.292;2023-05-10T07:50:45;14.90;;;10.20;;
22929;SDS011;11630;42.660;23.292;2023-05-10T07:53:16;14.40;;;11.03;;
22929;SDS011;11630;42.660;23.292;2023-05-10T07:55:50;11.33;;;9.63;;
22929;SDS011;11630;42.660;23.292;2023-05-10T07:58:23;12.13;;;10.40;;
22929;SDS011;11630;42.660;23.292;2023-05-10T08:00:54;13.70;;;11.17;;
22929;SDS011;11630;42.660;23.292;2023-05-10T08:03:25;14.93;;;10.03;;
22929;SDS011;11630;42.660;23.292;2023-05-10T08:05:56;11.33;;;10.10;;
22929;SDS011;11630;42.660;23.292;2023-05-10T08:08:27;14.87;;;10.10;;
22929;SDS011;11630;42.660;23.292;2023-05-10T08:10:58;16.03;;;11.50;;
22929;SDS011;11630;42.660;23.292;2023-05-10T08:13:29;12.73;;;11.13;;
22929;SDS011;11630;42.660;23.292;2023-05-10T08:15:59;13.57;;;10.13;;
22929;SDS011;11630;42.660;23.292;2023-05-10T08:18:29;13.70;;;10.33;;
22929;SDS011;11630;42.660;23.292;2023-05-10T08:21:07;11.20;;;8.40;;
22929;SDS011;11630;42.660;23.292;2023-05-10T08:23:42;11.57;;;9.33;;
22929;SDS011;11630;42.660;23.292;2023-05-10T08:26:13;14.07;;;10.03;;
22929;SDS011;11630;42.660;23.292;2023-05-10T08:28:43;15.37;;;11.30;;
22929;SDS011;11630;42.660;23.292;2023-05-10T08:31:14;14.00;;;11.07;;
22929;SDS011;11630;42.660;23.292;2023-05-10T08:33:45;11.37;;;10.17;;
22929;SDS011;11630;42.660;23.292;2023-05-10T08:36:15;12.93;;;10.10;;
22929;SDS011;11630;42.660;23.292;2023-05-10T08:38:52;11.63;;;10.07;;
22929;SDS011;11630;42.660;23.292;2023-05-10T08:41:24;13.13;;;10.33;;
22929;SDS011;11630;42.660;23.292;2023-05-10T08:43:55;13.37;;;10.90;;
22929;SDS011;11630;42.660;23.292;2023-05-10T08:46:26;12.17;;;10.50;;
22929;SDS011;11630;42.660;23.292;2023-05-10T08:49:01;13.90;;;10.73;;
22929;SDS011;11630;42.660;23.292;2023-05-10T08:51:35;12.63;;;11.13;;
22929;SDS011;11630;42.660;23.292;2023-05-10T08:54:05;11.43;;;10.23;;
22929;SDS011;11630;42.660;23.292;2023-05-10T08:56:37;11.27;;;10.07;;
22929;SDS011;11630;42.660;23.292;2023-05-10T08:59:08;12.40;;;11.10;;
22929;SDS011;11630;42.660;23.292;2023-05-10T09:01:39;14.40;;;11.10;;
22929;SDS011;11630;42.660;23.292;2023-05-10T09:04:12;13.07;;;10.90;;
22929;SDS011;11630;42.660;23.292;2023-05-10T09:06:43;12.03;;;10.77;;
22929;SDS011;11630;42.660;23.292;2023-05-10T09:09:13;15.07;;;11.23;;
22929;SDS011;11630;42.660;23.292;2023-05-10T09:11:44;16.40;;;12.37;;
22929;SDS011;11630;42.660;23.292;2023-05-10T09:14:15;12.43;;;11.13;;
22929;SDS011;11630;42.660;23.292;2023-05-10T09:16:46;14.03;;;12.23;;
22929;SDS011;11630;42.660;23.292;2023-05-10T09:19:17;13.83;;;11.33;;
22929;SDS011;11630;42.660;23.292;2023-05-10T09:21:48;15.03;;;12.07;;
22929;SDS011;11630;42.660;23.292;2023-05-10T09:24:20;13.70;;;11.97;;
22929;SDS011;11630;42.660;23.292;2023-05-10T09:26:52;15.20;;;11.10;;
22929;SDS011;11630;42.660;23.292;2023-05-10T09:29:22;13.03;;;11.67;;
22929;SDS011;11630;42.660;23.292;2023-05-10T09:31:53;10.67;;;9.27;;
22929;SDS011;11630;42.660;23.292;2023-05-10T09:34:30;16.53;;;12.60;;
22929;SDS011;11630;42.660;23.292;2023-05-10T09:37:01;15.10;;;12.50;;
22929;SDS011;11630;42.660;23.292;2023-05-10T09:39:31;12.80;;;11.50;;
22929;SDS011;11630;42.660;23.292;2023-05-10T09:42:04;14.67;;;12.03;;
22929;SDS011;11630;42.660;23.292;2023-05-10T09:44:36;14.30;;;11.20;;
22929;SDS011;11630;42.660;23.292;2023-05-10T09:47:06;14.73;;;11.60;;
22929;SDS011;11630;42.660;23.292;2023-05-10T09:49:39;15.87;;;11.93;;
22929;SDS011;11630;42.660;23.292;2023-05-10T09:52:14;12.30;;;11.13;;
22929;SDS011;11630;42.660;23.292;2023-05-10T09:54:52;14.27;;;11.77;;
22929;SDS011;11630;42.660;23.292;2023-05-10T09:57:20;17.43;;;11.20;;
22929;SDS011;11630;42.660;23.292;2023-05-10T09:59:54;15.10;;;12.60;;
22929;SDS011;11630;42.660;23.292;2023-05-10T10:02:28;13.40;;;10.93;;
22929;SDS011;11630;42.660;23.292;2023-05-10T10:05:00;13.10;;;11.77;;
22929;SDS011;11630;42.660;23.292;2023-05-10T10:07:33;12.83;;;9.47;;
22929;SDS011;11630;42.660;23.292;2023-05-10T10:10:05;10.50;;;8.97;;
22929;SDS011;11630;42.660;23.292;2023-05-10T10:12:37;11.83;;;10.63;;
22929;SDS011;11630;42.660;23.292;2023-05-10T10:15:08;14.83;;;10.63;;
22929;SDS011;11630;42.660;23.292;2023-05-10T10:17:39;12.83;;;10.27;;
22929;SDS011;11630;42.660;23.292;2023-05-10T10:20:10;10.50;;;9.40;;
22929;SDS011;11630;42.660;23.292;2023-05-10T10:22:41;11.03;;;9.93;;
22929;SDS011;11630;42.660;23.292;2023-05-10T10:25:12;14.50;;;10.60;;
22929;SDS011;11630;42.660;23.292;2023-05-10T10:30:41;10.63;;;9.63;;
22929;SDS011;11630;42.660;23.292;2023-05-10T10:33:30;11.83;;;10.23;;
22929;SDS011;11630;42.660;23.292;2023-05-10T10:36:01;15.43;;;10.07;;
22929;SDS011;11630;42.660;23.292;2023-05-10T10:39:17;11.90;;;10.70;;
22929;SDS011;11630;42.660;23.292;2023-05-10T10:41:33;12.07;;;9.87;;
22929;SDS011;11630;42.660;23.292;2023-05-10T10:49:48;15.47;;;8.43;;
22929;SDS011;11630;42.660;23.292;2023-05-10T10:52:24;12.17;;;9.10;;
22929;SDS011;11630;42.660;23.292;2023-05-10T10:55:08;9.57;;;8.33;;
22929;SDS011;11630;42.660;23.292;2023-05-10T10:57:46;10.33;;;9.03;;
22929;SDS011;11630;42.660;23.292;2023-05-10T11:03:08;10.47;;;8.20;;
22929;SDS011;11630;42.660;23.292;2023-05-10T11:05:42;10.73;;;9.67;;
22929;SDS011;11630;42.660;23.292;2023-05-10T11:08:20;13.20;;;9.43;;
22929;SDS011;11630;42.660;23.292;2023-05-10T11:13:33;12.73;;;8.23;;
22929;SDS011;11630;42.660;23.292;2023-05-10T11:16:15;13.90;;;9.80;;
22929;SDS011;11630;42.660;23.292;2023-05-10T11:21:25;11.87;;;9.03;;
22929;SDS011;11630;42.660;23.292;2023-05-10T11:23:56;9.37;;;8.37;;
22929;SDS011;11630;42.660;23.292;2023-05-10T11:26:30;8.73;;;7.83;;
22929;SDS011;11630;42.660;23.292;2023-05-10T11:29:05;9.43;;;8.53;;
22929;SDS011;11630;42.660;23.292;2023-05-10T11:31:41;9.67;;;8.47;;
22929;SDS011;11630;42.660;23.292;2023-05-10T11:34:29;12.53;;;9.37;;
22929;SDS011;11630;42.660;23.292;2023-05-10T11:37:02;9.23;;;8.27;;
22929;SDS011;11630;42.660;23.292;2023-05-10T11:39:32;10.30;;;8.97;;
22929;SDS011;11630;42.660;23.292;2023-05-10T11:42:06;9.60;;;8.20;;
22929;SDS011;11630;42.660;23.292;2023-05-10T11:44:37;11.90;;;8.00;;
22929;SDS011;11630;42.660;23.292;2023-05-10T11:47:08;11.43;;;9.23;;
22929;SDS011;11630;42.660;23.292;2023-05-10T11:49:45;12.10;;;8.87;;
22929;SDS011;11630;42.660;23.292;2023-05-10T11:52:16;11.83;;;8.53;;
22929;SDS011;11630;42.660;23.292;2023-05-10T11:54:51;12.37;;;8.37;;
22929;SDS011;11630;42.660;23.292;2023-05-10T11:57:25;9.47;;;8.33;;
22929;SDS011;11630;42.660;23.292;2023-05-10T11:59:54;12.70;;;9.90;;
22929;SDS011;11630;42.660;23.292;2023-05-10T12:02:25;13.07;;;8.60;;
22929;SDS011;11630;42.660;23.292;2023-05-10T12:04:56;11.17;;;9.90;;
22929;SDS011;11630;42.660;23.292;2023-05-10T12:07:27;11.30;;;9.67;;
22929;SDS011;11630;42.660;23.292;2023-05-10T12:10:13;14.40;;;9.93;;
22929;SDS011;11630;42.660;23.292;2023-05-10T12:12:44;12.83;;;10.37;;
22929;SDS011;11630;42.660;23.292;2023-05-10T12:15:21;12.10;;;9.27;;
22929;SDS011;11630;42.660;23.292;2023-05-10T12:17:54;12.20;;;9.63;;
22929;SDS011;11630;42.660;23.292;2023-05-10T12:20:27;14.13;;;10.00;;
22929;SDS011;11630;42.660;23.292;2023-05-10T12:22:58;12.83;;;10.00;;
22929;SDS011;11630;42.660;23.292;2023-05-10T12:25:32;15.10;;;9.80;;
22929;SDS011;11630;42.660;23.292;2023-05-10T12:28:04;11.60;;;9.90;;
22929;SDS011;11630;42.660;23.292;2023-05-10T12:30:37;16.87;;;10.03;;
22929;SDS011;11630;42.660;23.292;2023-05-10T12:33:09;13.37;;;10.30;;
22929;SDS011;11630;42.660;23.292;2023-05-10T12:35:48;12.97;;;9.87;;
22929;SDS011;11630;42.660;23.292;2023-05-10T12:38:26;13.93;;;9.83;;
22929;SDS011;11630;42.660;23.292;2023-05-10T12:41:11;12.37;;;10.00;;
22929;SDS011;11630;42.660;23.292;2023-05-10T12:43:49;17.60;;;10.30;;
22929;SDS011;11630;42.660;23.292;2023-05-10T12:46:18;13.10;;;10.27;;
22929;SDS011;11630;42.660;23.292;2023-05-10T12:48:50;12.13;;;10.47;;
22929;SDS011;11630;42.660;23.292;2023-05-10T12:51:21;12.70;;;10.23;;
22929;SDS011;11630;42.660;23.292;2023-05-10T12:53:53;12.03;;;9.17;;
22929;SDS011;11630;42.660;23.292;2023-05-10T12:56:25;12.60;;;10.13;;
22929;SDS011;11630;42.660;23.292;2023-05-10T12:58:56;12.97;;;10.10;;
22929;SDS011;11630;42.660;23.292;2023-05-10T13:01:27;13.80;;;10.37;;
22929;SDS011;11630;42.660;23.292;2023-05-10T13:03:58;15.70;;;10.70;;
22929;SDS011;11630;42.660;23.292;2023-05-10T13:06:28;15.10;;;10.93;;
22929;SDS011;11630;42.660;23.292;2023-05-10T13:08:59;11.33;;;9.97;;
22929;SDS011;11630;42.660;23.292;2023-05-10T13:11:30;10.83;;;9.57;;
22929;SDS011;11630;42.660;23.292;2023-05-10T13:14:03;18.13;;;11.00;;
22929;SDS011;11630;42.660;23.292;2023-05-10T13:16:32;14.57;;;11.17;;
22929;SDS011;11630;42.660;23.292;2023-05-10T13:19:09;13.23;;;9.43;;
22929;SDS011;11630;42.660;23.292;2023-05-10T13:21:40;13.33;;;10.60;;
22929;SDS011;11630;42.660;23.292;2023-05-10T13:24:12;15.83;;;10.10;;
22929;SDS011;11630;42.660;23.292;2023-05-10T13:26:42;12.27;;;10.90;;
22929;SDS011;11630;42.660;23.292;2023-05-10T13:29:13;14.10;;;11.87;;
22929;SDS011;11630;42.660;23.292;2023-05-10T13:31:44;14.37;;;8.87;;
22929;SDS011;11630;42.660;23.292;2023-05-10T13:34:18;13.67;;;11.30;;
22929;SDS011;11630;42.660;23.292;2023-05-10T13:36:52;11.53;;;10.33;;
22929;SDS011;11630;42.660;23.292;2023-05-10T13:39:23;13.13;;;9.80;;
22929;SDS011;11630;42.660;23.292;2023-05-10T13:41:55;11.00;;;9.30;;
22929;SDS011;11630;42.660;23.292;2023-05-10T13:44:26;13.63;;;10.33;;
22929;SDS011;11630;42.660;23.292;2023-05-10T13:46:56;14.27;;;10.17;;
22929;SDS011;11630;42.660;23.292;2023-05-10T13:49:27;15.63;;;9.90;;
22929;SDS011;11630;42.660;23.292;2023-05-10T13:51:58;16.83;;;9.57;;
22929;SDS011;11630;42.660;23.292;2023-05-10T13:54:33;14.37;;;10.77;;
22929;SDS011;11630;42.660;23.292;2023-05-10T13:57:04;16.70;;;11.77;;
22929;SDS011;11630;42.660;23.292;2023-05-10T13:59:34;13.50;;;10.37;;
22929;SDS011;11630;42.660;23.292;2023-05-10T14:02:05;15.87;;;10.70;;
22929;SDS011;11630;42.660;23.292;2023-05-10T14:04:36;15.00;;;10.23;;
22929;SDS011;11630;42.660;23.292;2023-05-10T14:07:08;16.20;;;10.97;;
22929;SDS011;11630;42.660;23.292;2023-05-10T14:09:39;11.87;;;8.97;;
22929;SDS011;11630;42.660;23.292;2023-05-10T14:12:15;15.27;;;10.40;;
22929;SDS011;11630;42.660;23.292;2023-05-10T14:14:42;16.27;;;9.13;;
22929;SDS011;11630;42.660;23.292;2023-05-10T14:17:13;11.10;;;8.63;;
22929;SDS011;11630;42.660;23.292;2023-05-10T14:19:44;13.43;;;9.23;;
22929;SDS011;11630;42.660;23.292;2023-05-10T14:22:15;18.10;;;10.77;;
22929;SDS011;11630;42.660;23.292;2023-05-10T14:24:46;12.97;;;8.60;;
22929;SDS011;11630;42.660;23.292;2023-05-10T14:27:17;12.13;;;9.40;;
22929;SDS011;11630;42.660;23.292;2023-05-10T14:29:48;14.63;;;9.30;;
22929;SDS011;11630;42.660;23.292;2023-05-10T14:32:19;12.20;;;10.47;;
22929;SDS011;11630;42.660;23.292;2023-05-10T14:34:50;14.80;;;9.20;;
22929;SDS011;11630;42.660;23.292;2023-05-10T14:37:20;11.83;;;9.60;;
22929;SDS011;11630;42.660;23.292;2023-05-10T14:39:51;11.20;;;9.83;;
22929;SDS011;11630;42.660;23.292;2023-05-10T14:42:22;12.20;;;10.27;;
22929;SDS011;11630;42.660;23.292;2023-05-10T14:44:53;18.30;;;10.17;;
22929;SDS011;11630;42.660;23.292;2023-05-10T14:47:23;12.40;;;10.30;;
22929;SDS011;11630;42.660;23.292;2023-05-10T14:49:53;13.60;;;8.43;;
22929;SDS011;11630;42.660;23.292;2023-05-10T14:55:46;15.00;;;9.83;;
22929;SDS011;11630;42.660;23.292;2023-05-10T14:58:17;11.83;;;9.70;;
22929;SDS011;11630;42.660;23.292;2023-05-10T15:00:48;13.47;;;10.63;;
22929;SDS011;11630;42.660;23.292;2023-05-10T15:03:20;11.10;;;9.30;;
22929;SDS011;11630;42.660;23.292;2023-05-10T15:05:50;14.53;;;9.60;;
22929;SDS011;11630;42.660;23.292;2023-05-10T15:08:23;21.77;;;10.60;;
22929;SDS011;11630;42.660;23.292;2023-05-10T15:10:55;12.27;;;8.93;;
22929;SDS011;11630;42.660;23.292;2023-05-10T15:13:26;12.00;;;7.30;;
22929;SDS011;11630;42.660;23.292;2023-05-10T15:15:57;11.63;;;9.07;;
22929;SDS011;11630;42.660;23.292;2023-05-10T15:18:32;13.57;;;10.77;;
22929;SDS011;11630;42.660;23.292;2023-05-10T15:21:03;15.60;;;9.60;;
22929;SDS011;11630;42.660;23.292;2023-05-10T15:23:34;14.43;;;9.47;;
22929;SDS011;11630;42.660;23.292;2023-05-10T15:26:05;12.23;;;9.10;;